createdAt,value
2022-10-07T00:01:31.908Z,9.61
2022-10-07T00:03:34.926Z,9.64
2022-10-07T00:05:37.167Z,9.77
2022-10-07T00:07:39.276Z,9.79
2022-10-07T00:09:41.782Z,9.81
2022-10-07T00:11:43.727Z,9.83
2022-10-07T00:13:47.829Z,9.81
2022-10-07T00:15:49.910Z,9.72
2022-10-07T00:17:52.053Z,9.75
2022-10-07T00:19:54.163Z,9.69
2022-10-07T00:21:56.370Z,9.62
2022-10-07T00:23:58.927Z,9.58
2022-10-07T00:26:02.886Z,9.50
2022-10-07T00:28:05.777Z,9.38
2022-10-07T00:30:10.102Z,9.41
2022-10-07T00:32:12.241Z,9.36
2022-10-07T00:34:14.920Z,9.30
2022-10-07T00:36:23.867Z,9.23
2022-10-07T00:38:27.003Z,9.18
2022-10-07T00:40:29.082Z,9.14
2022-10-07T00:42:32.511Z,9.14
2022-10-07T00:44:42.151Z,9.10
2022-10-07T00:46:44.260Z,9.05
2022-10-07T00:48:47.064Z,8.97
2022-10-07T00:50:52.811Z,8.96
2022-10-07T00:52:59.429Z,8.90
2022-10-07T00:55:06.808Z,8.93
2022-10-07T00:57:09.667Z,8.94
2022-10-07T00:59:14.352Z,8.88
2022-10-07T01:01:18.462Z,8.89
2022-10-07T01:03:21.233Z,8.86
2022-10-07T01:05:23.378Z,8.81
2022-10-07T01:07:26.894Z,8.78
2022-10-07T01:09:29.123Z,8.85
2022-10-07T01:12:03.311Z,8.84
2022-10-07T01:14:16.730Z,8.84
2022-10-07T01:16:52.113Z,8.84
2022-10-07T01:19:06.463Z,8.88
2022-10-07T01:21:33.976Z,8.94
2022-10-07T01:23:56.534Z,8.98
2022-10-07T01:26:27.625Z,9.01
2022-10-07T01:28:40.291Z,9.00
2022-10-07T01:30:50.478Z,8.93
2022-10-07T01:33:01.567Z,8.88
2022-10-07T01:35:10.239Z,8.82
2022-10-07T01:37:18.055Z,8.82
2022-10-07T01:39:27.781Z,8.75
2022-10-07T01:41:31.676Z,8.77
2022-10-07T01:43:34.603Z,8.69
2022-10-07T01:45:41.530Z,8.71
2022-10-07T01:47:44.959Z,8.61
2022-10-07T01:49:47.411Z,8.57
2022-10-07T01:52:14.505Z,8.62
2022-10-07T01:54:22.754Z,8.58
2022-10-07T01:56:36.191Z,8.51
2022-10-07T01:59:32.528Z,8.44
2022-10-07T02:01:57.184Z,8.44
2022-10-07T02:04:20.244Z,8.41
2022-10-07T02:06:36.970Z,8.39
2022-10-07T02:08:50.812Z,8.35
2022-10-07T02:11:11.708Z,8.35
2022-10-07T02:13:29.043Z,8.30
2022-10-07T02:15:45.260Z,8.18
2022-10-07T02:17:52.483Z,8.27
2022-10-07T02:19:56.734Z,8.25
2022-10-07T02:22:02.918Z,8.31
2022-10-07T02:24:11.055Z,8.43
2022-10-07T02:26:17.054Z,8.49
2022-10-07T02:28:23.848Z,8.53
2022-10-07T02:30:27.639Z,8.60
2022-10-07T02:32:31.749Z,8.60
2022-10-07T02:34:36.054Z,8.58
2022-10-07T02:36:44.728Z,8.53
2022-10-07T02:38:47.198Z,8.44
2022-10-07T02:40:49.128Z,8.49
2022-10-07T02:42:59.833Z,8.47
2022-10-07T02:45:18.215Z,8.49
2022-10-07T02:47:51.572Z,8.50
2022-10-07T02:49:54.361Z,8.57
2022-10-07T02:52:06.968Z,8.63
2022-10-07T02:54:10.738Z,8.60
2022-10-07T02:56:13.388Z,8.60
2022-10-07T02:58:17.347Z,8.60
2022-10-07T03:00:20.537Z,8.67
2022-10-07T03:02:46.545Z,8.75
2022-10-07T03:04:49.156Z,8.73
2022-10-07T03:06:51.496Z,8.71
2022-10-07T03:08:53.599Z,8.72
2022-10-07T03:10:55.676Z,8.60
2022-10-07T03:12:59.062Z,8.63
2022-10-07T03:15:01.535Z,8.60
2022-10-07T03:17:05.341Z,8.56
2022-10-07T03:19:07.445Z,8.49
2022-10-07T03:21:18.731Z,8.45
2022-10-07T03:23:26.575Z,8.36
2022-10-07T03:25:28.686Z,8.34
2022-10-07T03:27:31.151Z,8.24
2022-10-07T03:29:37.190Z,8.27
2022-10-07T03:31:42.477Z,8.21
2022-10-07T03:33:44.724Z,8.22
2022-10-07T03:35:47.258Z,8.17
2022-10-07T03:37:49.305Z,8.12
2022-10-07T03:39:52.969Z,8.17
2022-10-07T03:41:57.579Z,8.15
2022-10-07T03:44:00.428Z,8.13
2022-10-07T03:46:04.437Z,8.09
2022-10-07T03:48:09.262Z,8.09
2022-10-07T03:50:11.293Z,8.06
2022-10-07T03:52:13.699Z,8.09
2022-10-07T03:54:16.098Z,8.08
2022-10-07T03:56:18.281Z,8.07
2022-10-07T03:58:20.498Z,8.08
2022-10-07T04:00:24.969Z,8.07
2022-10-07T04:02:30.263Z,8.08
2022-10-07T04:04:32.605Z,8.12
2022-10-07T04:06:34.901Z,8.13
2022-10-07T04:08:41.352Z,8.14
2022-10-07T04:10:44.192Z,8.18
2022-10-07T04:12:49.114Z,8.24
2022-10-07T04:14:51.599Z,8.39
2022-10-07T04:16:53.606Z,8.60
2022-10-07T04:18:56.629Z,8.83
2022-10-07T04:21:01.242Z,9.23
2022-10-07T04:23:05.770Z,10.12
2022-10-07T04:25:30.074Z,11.50
2022-10-07T04:27:50.771Z,13.41
2022-10-07T04:29:53.919Z,15.77
2022-10-07T04:31:59.318Z,17.74
2022-10-07T04:34:01.930Z,18.14
2022-10-07T04:36:10.676Z,17.52
2022-10-07T04:38:33.201Z,18.77
2022-10-07T04:40:45.803Z,20.06
2022-10-07T04:43:07.809Z,20.93
2022-10-07T04:45:10.647Z,22.60
2022-10-07T04:47:15.327Z,23.99
2022-10-07T04:49:17.681Z,25.03
2022-10-07T04:51:19.623Z,25.85
2022-10-07T04:53:25.001Z,26.88
2022-10-07T04:55:33.297Z,27.76
2022-10-07T04:57:38.665Z,27.88
2022-10-07T04:59:43.027Z,28.04
2022-10-07T05:01:48.977Z,28.88
2022-10-07T05:03:52.589Z,29.04
2022-10-07T05:06:05.808Z,29.59
2022-10-07T05:08:15.073Z,30.17
2022-10-07T05:10:19.999Z,30.85
2022-10-07T05:12:26.017Z,30.42
2022-10-07T05:14:29.162Z,28.53
2022-10-07T05:16:34.121Z,25.42
2022-10-07T05:18:39.674Z,22.83
2022-10-07T05:20:47.646Z,20.93
2022-10-07T05:22:50.256Z,19.58
2022-10-07T05:24:53.077Z,18.54
2022-10-07T05:26:55.313Z,17.90
2022-10-07T05:28:57.664Z,17.20
2022-10-07T05:31:12.167Z,16.46
2022-10-07T05:33:16.659Z,15.79
2022-10-07T05:35:19.480Z,15.31
2022-10-07T05:37:21.605Z,14.94
2022-10-07T05:39:23.881Z,14.70
2022-10-07T05:41:45.790Z,14.50
2022-10-07T05:43:51.251Z,14.41
2022-10-07T05:46:01.371Z,14.12
2022-10-07T05:48:05.602Z,14.35
2022-10-07T05:50:08.415Z,14.83
2022-10-07T05:52:10.860Z,14.99
2022-10-07T05:54:13.923Z,15.08
2022-10-07T05:56:22.472Z,17.07
2022-10-07T05:58:26.667Z,17.72
2022-10-07T06:00:29.956Z,17.93
2022-10-07T06:02:32.790Z,19.09
2022-10-07T06:04:35.512Z,19.10
2022-10-07T06:06:38.698Z,18.62
2022-10-07T06:08:44.338Z,18.27
2022-10-07T06:11:05.457Z,17.89
2022-10-07T06:13:09.180Z,17.32
2022-10-07T06:15:14.198Z,16.84
2022-10-07T06:17:19.413Z,16.52
2022-10-07T06:19:23.223Z,16.04
2022-10-07T06:21:29.072Z,15.55
2022-10-07T06:23:35.991Z,15.17
2022-10-07T06:25:39.404Z,14.74
2022-10-07T06:27:53.462Z,14.35
2022-10-07T06:30:08.406Z,14.14
2022-10-07T06:32:11.076Z,14.00
2022-10-07T06:34:14.485Z,14.08
2022-10-07T06:36:17.558Z,14.13
2022-10-07T06:38:21.516Z,14.29
2022-10-07T06:40:23.950Z,14.21
2022-10-07T06:42:27.131Z,14.13
2022-10-07T06:44:54.002Z,13.97
2022-10-07T06:46:58.164Z,13.74
2022-10-07T06:49:01.168Z,13.64
2022-10-07T06:51:03.650Z,13.45
2022-10-07T06:53:07.569Z,13.26
2022-10-07T06:55:09.983Z,13.16
2022-10-07T06:57:33.507Z,13.06
2022-10-07T06:59:35.321Z,12.79
2022-10-07T07:01:46.188Z,12.79
2022-10-07T07:03:48.589Z,12.90
2022-10-07T07:05:57.172Z,13.12
2022-10-07T07:08:04.629Z,13.20
2022-10-07T07:10:07.639Z,12.96
2022-10-07T07:12:12.921Z,12.98
2022-10-07T07:14:19.228Z,12.85
2022-10-07T07:16:27.683Z,12.85
2022-10-07T07:18:30.444Z,13.03
2022-10-07T07:20:37.365Z,13.09
2022-10-07T07:22:41.519Z,13.13
2022-10-07T07:24:43.704Z,13.12
2022-10-07T07:26:46.696Z,13.00
2022-10-07T07:28:59.224Z,12.98
2022-10-07T07:31:11.306Z,12.90
2022-10-07T07:33:13.730Z,12.85
2022-10-07T07:35:16.216Z,12.78
2022-10-07T07:37:18.381Z,12.82
2022-10-07T07:39:24.629Z,12.88
2022-10-07T07:41:36.413Z,12.90
2022-10-07T07:43:38.643Z,12.83
2022-10-07T07:45:40.856Z,12.84
2022-10-07T07:47:43.871Z,12.90
2022-10-07T07:49:46.215Z,12.98
2022-10-07T07:51:56.228Z,12.97
2022-10-07T07:54:03.598Z,12.95
2022-10-07T07:56:06.109Z,12.93
2022-10-07T07:58:11.765Z,12.95
2022-10-07T08:00:16.342Z,13.00
2022-10-07T08:02:32.111Z,13.02
2022-10-07T08:04:34.066Z,13.03
2022-10-07T08:06:37.779Z,12.91
2022-10-07T08:08:43.618Z,12.82
2022-10-07T08:10:51.687Z,12.73
2022-10-07T08:12:55.089Z,12.76
2022-10-07T08:14:58.173Z,12.89
2022-10-07T08:17:00.358Z,12.97
2022-10-07T08:19:03.016Z,13.09
2022-10-07T08:21:06.167Z,13.16
2022-10-07T08:23:08.756Z,13.28
2022-10-07T08:25:11.350Z,13.36
2022-10-07T08:27:17.347Z,13.51
2022-10-07T08:29:21.224Z,13.58
2022-10-07T08:31:27.464Z,13.68
2022-10-07T08:33:33.509Z,13.70
2022-10-07T08:35:35.592Z,13.65
2022-10-07T08:37:37.715Z,13.53
2022-10-07T08:39:39.795Z,13.43
2022-10-07T08:42:25.168Z,13.44
2022-10-07T08:44:40.031Z,13.44
2022-10-07T08:47:15.002Z,13.38
2022-10-07T08:49:24.999Z,13.32
2022-10-07T08:51:42.547Z,13.39
2022-10-07T08:53:47.543Z,13.47
2022-10-07T08:55:54.505Z,13.66
2022-10-07T08:58:08.724Z,13.91
2022-10-07T09:00:13.863Z,14.07
2022-10-07T09:02:45.278Z,14.20
2022-10-07T09:05:28.569Z,14.23
2022-10-07T09:07:32.779Z,14.15
2022-10-07T09:09:38.560Z,13.88
2022-10-07T09:11:44.262Z,13.85
2022-10-07T09:13:52.811Z,13.83
2022-10-07T09:16:09.016Z,13.94
2022-10-07T09:18:19.699Z,13.86
2022-10-07T09:20:31.967Z,13.68
2022-10-07T09:22:39.729Z,13.76
2022-10-07T09:26:51.372Z,14.15
2022-10-07T09:28:53.871Z,14.13
2022-10-07T09:31:04.194Z,13.95
2022-10-07T09:33:13.704Z,13.86
2022-10-07T09:35:18.922Z,13.79
2022-10-07T09:37:24.322Z,13.73
2022-10-07T09:39:27.482Z,13.72
2022-10-07T09:41:35.645Z,13.80
2022-10-07T09:43:43.293Z,13.82
2022-10-07T09:45:47.146Z,13.82
2022-10-07T09:48:07.773Z,13.93
2022-10-07T09:50:39.037Z,14.07
2022-10-07T09:52:55.976Z,14.07
2022-10-07T09:55:34.931Z,14.01
2022-10-07T09:57:37.127Z,13.96
2022-10-07T09:59:40.337Z,14.01
2022-10-07T10:01:48.738Z,14.03
2022-10-07T10:03:58.362Z,14.10
2022-10-07T10:06:02.791Z,14.14
2022-10-07T10:08:27.115Z,14.10
2022-10-07T10:10:39.493Z,14.10
2022-10-07T10:12:51.856Z,13.96
2022-10-07T10:15:00.632Z,14.01
2022-10-07T10:17:04.822Z,13.98
2022-10-07T10:19:27.825Z,13.96
2022-10-07T10:21:36.931Z,13.83
2022-10-07T10:23:44.147Z,13.73
2022-10-07T10:26:18.245Z,13.74
2022-10-07T10:28:47.714Z,13.84
2022-10-07T10:30:59.128Z,13.85
2022-10-07T10:33:14.866Z,13.92
2022-10-07T10:35:20.366Z,13.88
2022-10-07T10:37:30.259Z,13.86
2022-10-07T10:39:52.464Z,13.91
2022-10-07T10:41:58.239Z,13.95
2022-10-07T10:44:31.171Z,14.05
2022-10-07T10:46:33.205Z,14.04
2022-10-07T10:48:46.019Z,14.01
2022-10-07T10:51:31.953Z,14.03
2022-10-07T10:54:07.061Z,14.15
2022-10-07T10:56:23.600Z,14.30
2022-10-07T10:59:09.668Z,14.46
2022-10-07T11:01:35.104Z,14.60
2022-10-07T11:03:37.206Z,14.77
2022-10-07T11:05:42.667Z,14.75
2022-10-07T11:07:50.681Z,14.62
2022-10-07T11:10:00.780Z,14.56
2022-10-07T11:12:07.106Z,14.48
2022-10-07T11:14:20.283Z,14.47
2022-10-07T11:16:31.033Z,14.42
2022-10-07T11:18:39.651Z,14.47
2022-10-07T11:20:48.228Z,14.53
2022-10-07T11:23:05.611Z,14.60
2022-10-07T11:25:24.330Z,14.65
2022-10-07T11:27:33.544Z,14.59
2022-10-07T11:29:35.673Z,14.60
2022-10-07T11:31:42.654Z,14.57
2022-10-07T11:34:23.293Z,14.59
2022-10-07T11:36:40.011Z,14.50
2022-10-07T11:38:42.921Z,14.59
2022-10-07T11:40:54.981Z,14.60
2022-10-07T11:43:06.302Z,14.57
2022-10-07T11:45:33.621Z,14.43
2022-10-07T11:47:45.986Z,14.29
2022-10-07T11:49:58.006Z,14.11
2022-10-07T11:52:06.034Z,14.04
2022-10-07T11:54:14.412Z,13.95
2022-10-07T11:56:27.202Z,13.99
2022-10-07T11:58:36.005Z,13.93
2022-10-07T12:00:40.568Z,13.92
2022-10-07T12:02:47.280Z,13.87
2022-10-07T12:04:49.551Z,13.75
2022-10-07T12:07:28.976Z,13.71
2022-10-07T12:09:54.459Z,13.71
2022-10-07T12:11:57.086Z,13.66
2022-10-07T12:14:41.009Z,13.85
2022-10-07T12:16:54.436Z,13.92
2022-10-07T12:19:09.877Z,13.91
2022-10-07T12:21:12.471Z,13.87
2022-10-07T12:23:17.713Z,13.90
2022-10-07T12:25:42.964Z,13.88
2022-10-07T12:27:46.534Z,13.80
2022-10-07T12:30:02.626Z,13.74
2022-10-07T12:33:01.230Z,13.68
2022-10-07T12:35:34.816Z,13.60
2022-10-07T12:37:45.624Z,13.56
2022-10-07T12:39:47.938Z,13.53
2022-10-07T12:41:51.117Z,13.52
2022-10-07T12:43:56.124Z,13.52
2022-10-07T12:45:58.793Z,13.51
2022-10-07T12:48:02.408Z,13.44
2022-10-07T12:50:13.063Z,13.40
2022-10-07T12:52:30.490Z,13.38
2022-10-07T12:54:37.605Z,13.23
2022-10-07T12:56:44.006Z,13.14
2022-10-07T12:59:14.465Z,13.08
2022-10-07T13:01:37.167Z,12.98
2022-10-07T13:04:05.936Z,12.90
2022-10-07T13:06:36.970Z,12.82
2022-10-07T13:09:02.876Z,12.72
2022-10-07T13:11:13.939Z,12.77
2022-10-07T13:13:34.850Z,12.80
2022-10-07T13:15:49.718Z,12.82
2022-10-07T13:17:58.685Z,12.76
2022-10-07T13:20:34.335Z,12.72
2022-10-07T13:22:36.569Z,12.73
2022-10-07T13:24:59.876Z,12.70
2022-10-07T13:27:02.126Z,12.64
2022-10-07T13:29:05.931Z,12.55
2022-10-07T13:31:23.108Z,12.53
2022-10-07T13:33:31.894Z,12.49
2022-10-07T13:35:39.340Z,12.31
2022-10-07T13:37:46.856Z,12.42
2022-10-07T13:39:48.906Z,12.45
2022-10-07T13:41:55.703Z,12.43
2022-10-07T13:44:06.256Z,12.45
2022-10-07T13:46:09.943Z,12.41
2022-10-07T13:48:17.357Z,12.35
2022-10-07T13:50:26.651Z,12.27
2022-10-07T13:52:31.671Z,12.25
2022-10-07T13:54:34.743Z,12.20
2022-10-07T13:56:41.898Z,12.14
2022-10-07T13:58:44.474Z,12.13
2022-10-07T14:00:49.101Z,12.11
2022-10-07T14:02:51.695Z,12.09
2022-10-07T14:05:05.213Z,12.04
2022-10-07T14:07:13.143Z,11.96
2022-10-07T14:09:35.424Z,11.94
2022-10-07T14:11:37.757Z,11.90
2022-10-07T14:13:42.651Z,11.85
2022-10-07T14:15:51.924Z,11.81
2022-10-07T14:18:04.697Z,11.72
2022-10-07T14:20:19.131Z,11.72
2022-10-07T14:22:31.431Z,11.67
2022-10-07T14:24:33.667Z,11.59
2022-10-07T14:26:43.789Z,11.52
2022-10-07T14:28:45.973Z,11.46
2022-10-07T14:31:26.688Z,11.45
2022-10-07T14:33:48.819Z,11.34
2022-10-07T14:36:15.448Z,11.29
2022-10-07T14:38:27.985Z,11.25
2022-10-07T14:40:30.069Z,11.22
2022-10-07T14:42:36.358Z,11.12
2022-10-07T14:44:38.687Z,11.14
2022-10-07T14:46:40.914Z,11.14
2022-10-07T14:48:43.232Z,11.13
2022-10-07T14:50:45.314Z,11.02
2022-10-07T14:52:52.560Z,11.09
2022-10-07T14:55:00.651Z,11.00
2022-10-07T14:57:02.823Z,11.02
2022-10-07T14:59:10.778Z,11.05
2022-10-07T15:01:12.942Z,11.05
2022-10-07T15:03:14.960Z,11.02
2022-10-07T15:05:18.092Z,10.98
2022-10-07T15:07:21.510Z,10.93
2022-10-07T15:09:23.720Z,10.93
2022-10-07T15:11:26.393Z,10.89
2022-10-07T15:13:29.266Z,10.84
2022-10-07T15:15:31.717Z,10.77
2022-10-07T15:17:33.725Z,10.75
2022-10-07T15:19:36.012Z,10.67
2022-10-07T15:21:38.228Z,10.55
2022-10-07T15:23:41.154Z,10.49
2022-10-07T15:25:43.489Z,10.35
2022-10-07T15:27:45.610Z,10.23
2022-10-07T15:29:47.721Z,10.02
2022-10-07T15:31:52.333Z,9.88
2022-10-07T15:33:57.304Z,9.84
2022-10-07T15:35:59.794Z,9.77
2022-10-07T15:38:03.977Z,9.72
2022-10-07T15:40:07.727Z,9.70
2022-10-07T15:42:10.059Z,9.70
2022-10-07T15:44:16.606Z,9.69
2022-10-07T15:46:18.692Z,9.70
2022-10-07T15:48:23.356Z,9.71
2022-10-07T15:50:25.630Z,9.80
2022-10-07T15:52:32.557Z,9.80
2022-10-07T15:54:35.745Z,9.88
2022-10-07T15:56:38.057Z,9.90
2022-10-07T15:58:41.230Z,9.88
2022-10-07T16:00:43.270Z,9.86
2022-10-07T16:02:46.664Z,9.79
2022-10-07T16:04:48.989Z,9.78
2022-10-07T16:06:54.209Z,9.78
2022-10-07T16:08:56.905Z,9.82
2022-10-07T16:11:03.879Z,9.82
2022-10-07T16:13:05.932Z,9.87
2022-10-07T16:15:08.337Z,9.83
2022-10-07T16:17:10.288Z,9.82
2022-10-07T16:19:12.421Z,9.75
2022-10-07T16:21:22.991Z,9.70
2022-10-07T16:23:25.118Z,9.63
2022-10-07T16:25:27.325Z,9.62
2022-10-07T16:27:49.511Z,9.51
2022-10-07T16:30:10.009Z,9.51
2022-10-07T16:32:12.154Z,9.54
2022-10-07T16:34:16.463Z,9.50
2022-10-07T16:36:23.431Z,9.51
2022-10-07T16:38:25.523Z,9.42
2022-10-07T16:40:27.578Z,9.41
2022-10-07T16:42:29.803Z,9.37
2022-10-07T16:44:31.935Z,9.37
2022-10-07T16:46:34.495Z,9.43
2022-10-07T16:48:41.545Z,9.48
2022-10-07T16:50:47.988Z,9.44
2022-10-07T16:52:50.264Z,9.50
2022-10-07T16:54:52.675Z,9.40
2022-10-07T16:56:58.349Z,9.50
2022-10-07T16:59:03.949Z,9.58
2022-10-07T17:01:12.854Z,9.59
2022-10-07T17:03:15.245Z,9.53
2022-10-07T17:05:20.845Z,9.41
2022-10-07T17:07:23.033Z,9.30
2022-10-07T17:09:25.448Z,9.20
2022-10-07T17:11:31.315Z,9.08
2022-10-07T17:13:34.516Z,8.95
2022-10-07T17:15:40.154Z,8.86
2022-10-07T17:17:42.358Z,8.72
2022-10-07T17:19:45.182Z,8.62
2022-10-07T17:21:49.512Z,8.58
2022-10-07T17:23:51.840Z,8.43
2022-10-07T17:25:54.506Z,8.37
2022-10-07T17:27:56.721Z,8.21
2022-10-07T17:29:58.936Z,8.23
2022-10-07T17:32:01.031Z,8.15
2022-10-07T17:34:07.772Z,8.01
2022-10-07T17:36:12.131Z,8.06
2022-10-07T17:38:14.631Z,7.83
2022-10-07T17:40:16.781Z,7.91
2022-10-07T17:42:18.924Z,7.81
2022-10-07T17:44:22.040Z,7.79
2022-10-07T17:46:26.794Z,7.78
2022-10-07T17:48:29.200Z,7.73
2022-10-07T17:50:31.573Z,7.69
2022-10-07T17:52:34.041Z,7.60
2022-10-07T17:54:37.384Z,7.52
2022-10-07T17:56:44.651Z,7.52
2022-10-07T17:58:48.691Z,7.52
2022-10-07T18:00:51.994Z,7.48
2022-10-07T18:02:54.172Z,7.43
2022-10-07T18:04:57.313Z,7.40
2022-10-07T18:06:59.514Z,7.27
2022-10-07T18:09:04.979Z,7.28
2022-10-07T18:11:08.297Z,7.23
2022-10-07T18:13:29.110Z,7.09
2022-10-07T18:15:31.355Z,7.12
2022-10-07T18:17:33.704Z,7.04
2022-10-07T18:19:35.965Z,7.02
2022-10-07T18:21:38.319Z,6.90
2022-10-07T18:23:46.946Z,6.92
2022-10-07T18:25:49.082Z,6.87
2022-10-07T18:27:53.051Z,6.80
2022-10-07T18:29:56.110Z,6.82
2022-10-07T18:31:59.122Z,6.78
2022-10-07T18:34:01.378Z,6.73
2022-10-07T18:36:24.928Z,6.74
2022-10-07T18:38:34.084Z,6.74
2022-10-07T18:40:36.395Z,6.61
2022-10-07T18:42:38.897Z,6.68
2022-10-07T18:44:41.118Z,6.63
2022-10-07T18:46:43.395Z,6.63
2022-10-07T18:48:48.887Z,6.59
2022-10-07T18:50:52.141Z,6.57
2022-10-07T18:52:54.290Z,6.50
2022-10-07T18:54:56.587Z,6.53
2022-10-07T18:56:58.953Z,6.58
2022-10-07T18:59:01.067Z,6.46
2022-10-07T19:01:17.994Z,6.64
2022-10-07T19:03:20.414Z,6.60
2022-10-07T19:05:22.727Z,6.72
2022-10-07T19:07:25.655Z,6.82
2022-10-07T19:09:27.741Z,6.93
2022-10-07T19:11:32.961Z,6.92
2022-10-07T19:13:54.479Z,7.10
2022-10-07T19:15:56.828Z,7.22
2022-10-07T19:17:58.803Z,7.25
2022-10-07T19:20:01.151Z,7.27
2022-10-07T19:22:05.437Z,7.22
2022-10-07T19:24:08.018Z,7.23
2022-10-07T19:26:12.470Z,7.16
2022-10-07T19:28:14.995Z,7.12
2022-10-07T19:30:17.343Z,7.10
2022-10-07T19:32:20.259Z,7.11
2022-10-07T19:34:23.033Z,7.15
2022-10-07T19:36:25.718Z,7.13
2022-10-07T19:38:27.970Z,7.19
2022-10-07T19:40:30.211Z,7.22
2022-10-07T19:42:32.919Z,7.27
2022-10-07T19:44:35.109Z,7.24
2022-10-07T19:46:38.556Z,7.16
2022-10-07T19:48:41.175Z,6.98
2022-10-07T19:50:43.437Z,6.97
2022-10-07T19:52:46.378Z,6.87
2022-10-07T19:54:50.021Z,6.81
2022-10-07T19:56:52.382Z,6.75
2022-10-07T19:58:55.647Z,6.70
2022-10-07T20:01:04.692Z,6.57
2022-10-07T20:03:07.121Z,6.53
2022-10-07T20:05:10.022Z,6.44
2022-10-07T20:07:12.613Z,6.45
2022-10-07T20:09:16.858Z,6.45
2022-10-07T20:11:19.485Z,6.38
2022-10-07T20:13:21.896Z,6.37
2022-10-07T20:15:23.964Z,6.34
2022-10-07T20:17:29.664Z,6.28
2022-10-07T20:19:32.203Z,6.26
2022-10-07T20:21:36.631Z,6.15
2022-10-07T20:23:48.513Z,6.18
2022-10-07T20:25:50.642Z,6.11
2022-10-07T20:27:52.867Z,6.11
2022-10-07T20:29:58.164Z,6.04
2022-10-07T20:32:00.324Z,6.01
2022-10-07T20:34:03.834Z,5.94
2022-10-07T20:36:10.618Z,5.92
2022-10-07T20:38:13.009Z,5.93
2022-10-07T20:40:34.943Z,5.93
2022-10-07T20:42:37.165Z,5.86
2022-10-07T20:44:39.453Z,5.80
2022-10-07T20:46:41.672Z,5.74
2022-10-07T20:48:45.777Z,5.70
2022-10-07T20:50:49.006Z,5.61
2022-10-07T20:52:51.487Z,5.59
2022-10-07T20:54:54.411Z,5.60
2022-10-07T20:56:58.230Z,5.58
2022-10-07T20:59:00.505Z,5.58
2022-10-07T21:01:10.438Z,5.47
2022-10-07T21:03:12.869Z,5.52
2022-10-07T21:05:15.672Z,5.44
2022-10-07T21:07:19.010Z,5.45
2022-10-07T21:09:21.142Z,5.43
2022-10-07T21:11:25.630Z,5.37
2022-10-07T21:13:28.420Z,5.39
2022-10-07T21:15:30.560Z,5.37
2022-10-07T21:17:34.523Z,5.35
2022-10-07T21:19:36.857Z,5.20
2022-10-07T21:21:39.439Z,5.25
2022-10-07T21:23:41.492Z,5.20
2022-10-07T21:25:43.669Z,5.21
2022-10-07T21:27:45.836Z,5.17
2022-10-07T21:29:48.927Z,5.16
2022-10-07T21:31:53.284Z,5.07
2022-10-07T21:33:55.464Z,5.05
2022-10-07T21:36:01.717Z,5.16
2022-10-07T21:38:06.589Z,5.10
2022-10-07T21:40:09.166Z,5.08
2022-10-07T21:42:11.336Z,5.04
2022-10-07T21:44:14.253Z,5.03
2022-10-07T21:46:16.785Z,4.90
2022-10-07T21:48:19.687Z,5.02
2022-10-07T21:50:21.921Z,4.99
2022-10-07T21:52:24.284Z,4.97
2022-10-07T21:54:26.374Z,4.92
2022-10-07T21:56:30.844Z,4.80
2022-10-07T21:58:33.668Z,4.86
2022-10-07T22:00:36.448Z,4.86
2022-10-07T22:02:39.484Z,4.87
2022-10-07T22:04:42.553Z,4.81
2022-10-07T22:07:03.263Z,4.86
2022-10-07T22:09:05.405Z,4.83
2022-10-07T22:11:13.854Z,4.81
2022-10-07T22:13:15.960Z,4.77
2022-10-07T22:15:18.155Z,4.78
2022-10-07T22:17:20.326Z,4.78
2022-10-07T22:19:23.167Z,4.77
2022-10-07T22:21:28.219Z,4.72
2022-10-07T22:23:30.513Z,4.72
2022-10-07T22:25:32.617Z,4.70
2022-10-07T22:27:34.873Z,4.70
2022-10-07T22:29:37.588Z,4.65
2022-10-07T22:31:39.646Z,4.69
2022-10-07T22:33:42.913Z,4.65
2022-10-07T22:35:45.101Z,4.64
2022-10-07T22:37:47.202Z,4.64
2022-10-07T22:39:49.649Z,4.58
2022-10-07T22:41:51.632Z,4.60
2022-10-07T22:43:54.139Z,4.54
2022-10-07T22:46:00.015Z,4.55
2022-10-07T22:48:04.017Z,4.55
2022-10-07T22:50:10.070Z,4.53
2022-10-07T22:52:12.229Z,4.51
2022-10-07T22:54:14.590Z,4.31
2022-10-07T22:56:18.134Z,4.49
2022-10-07T22:58:20.277Z,4.43
2022-10-07T23:00:22.623Z,4.42
2022-10-07T23:02:24.921Z,4.45
2022-10-07T23:04:27.142Z,4.41
2022-10-07T23:06:32.716Z,4.39
2022-10-07T23:08:35.357Z,4.41
2022-10-07T23:10:37.632Z,4.40
2022-10-07T23:12:39.911Z,4.35
2022-10-07T23:14:43.263Z,4.34
2022-10-07T23:16:45.476Z,4.30
2022-10-07T23:18:49.342Z,4.28
2022-10-07T23:21:09.834Z,4.32
2022-10-07T23:23:12.549Z,4.26
2022-10-07T23:25:14.941Z,4.30
2022-10-07T23:27:17.523Z,4.17
2022-10-07T23:29:20.661Z,4.21
2022-10-07T23:31:28.529Z,4.31
2022-10-07T23:33:33.497Z,4.00
2022-10-07T23:35:37.184Z,4.32
2022-10-07T23:37:40.281Z,4.29
2022-10-07T23:39:43.444Z,4.28
2022-10-07T23:41:45.937Z,4.29
2022-10-07T23:43:52.706Z,4.26
2022-10-07T23:45:55.428Z,4.23
2022-10-07T23:47:57.537Z,4.25
2022-10-07T23:49:59.947Z,4.28
2022-10-07T23:52:02.171Z,4.32
2022-10-07T23:54:05.174Z,4.32
2022-10-07T23:56:08.102Z,4.30
2022-10-07T23:58:10.310Z,4.28
